sensor_id;sensor_type;location;lat;lon;timestamp;pressure;altitude;pressure_sealevel;temperature;humidity
53619;BME280;68717;53.040;18.488;2024-01-15T00:00:10;98845.44;;;2.52;100.00
53619;BME280;68717;53.040;18.488;2024-01-15T00:00:24;98842.78;;;2.52;100.00
53619;BME280;68717;53.040;18.488;2024-01-15T00:00:58;98849.78;;;2.53;100.00
53619;BME280;68717;53.040;18.488;2024-01-15T00:01:31;98846.28;;;2.53;100.00
53619;BME280;68717;53.040;18.488;2024-01-15T00:01:45;98850.72;;;2.52;100.00
53619;BME280;68717;53.040;18.488;2024-01-15T00:01:58;98845.44;;;2.52;100.00
53619;BME280;68717;53.040;18.488;2024-01-15T00:02:11;98850.72;;;2.52;100.00
53619;BME280;68717;53.040;18.488;2024-01-15T00:02:25;98845.44;;;2.52;100.00
53619;BME280;68717;53.040;18.488;2024-01-15T00:02:38;98848.06;;;2.52;100.00
53619;BME280;68717;53.040;18.488;2024-01-15T00:02:57;98848.06;;;2.52;100.00
53619;BME280;68717;53.040;18.488;2024-01-15T00:03:11;98848.78;;;2.54;100.00
53619;BME280;68717;53.040;18.488;2024-01-15T00:03:25;98846.16;;;2.54;100.00
53619;BME280;68717;53.040;18.488;2024-01-15T00:03:41;98844.47;;;2.53;100.00
53619;BME280;68717;53.040;18.488;2024-01-15T00:03:58;98841.84;;;2.53;100.00
53619;BME280;68717;53.040;18.488;2024-01-15T00:04:11;98848.06;;;2.52;100.00
53619;BME280;68717;53.040;18.488;2024-01-15T00:04:25;98840.13;;;2.52;100.00
53619;BME280;68717;53.040;18.488;2024-01-15T00:04:38;98843.66;;;2.53;100.00
53619;BME280;68717;53.040;18.488;2024-01-15T00:04:51;98847.97;;;2.54;100.00
53619;BME280;68717;53.040;18.488;2024-01-15T00:05:05;98847.13;;;2.53;100.00
53619;BME280;68717;53.040;18.488;2024-01-15T00:05:18;98841.84;;;2.53;100.00
53619;BME280;68717;53.040;18.488;2024-01-15T00:05:33;98848.78;;;2.54;100.00
53619;BME280;68717;53.040;18.488;2024-01-15T00:05:47;98848.78;;;2.54;100.00
53619;BME280;68717;53.040;18.488;2024-01-15T00:05:59;98850.59;;;2.54;100.00
53619;BME280;68717;53.040;18.488;2024-01-15T00:06:13;98850.59;;;2.54;100.00
53619;BME280;68717;53.040;18.488;2024-01-15T00:06:26;98843.50;;;2.54;100.00
53619;BME280;68717;53.040;18.488;2024-01-15T00:06:39;98849.66;;;2.55;100.00
53619;BME280;68717;53.040;18.488;2024-01-15T00:06:53;98855.78;;;2.55;100.00
53619;BME280;68717;53.040;18.488;2024-01-15T00:07:06;98846.03;;;2.56;100.00
53619;BME280;68717;53.040;18.488;2024-01-15T00:07:19;98844.47;;;2.53;100.00
53619;BME280;68717;53.040;18.488;2024-01-15T00:07:35;98843.50;;;2.54;100.00
53619;BME280;68717;53.040;18.488;2024-01-15T00:07:49;98851.44;;;2.54;100.00
53619;BME280;68717;53.040;18.488;2024-01-15T00:08:02;98843.50;;;2.54;100.00
53619;BME280;68717;53.040;18.488;2024-01-15T00:08:15;98838.22;;;2.54;100.00
53619;BME280;68717;53.040;18.488;2024-01-15T00:08:28;98846.16;;;2.54;100.00
53619;BME280;68717;53.040;18.488;2024-01-15T00:08:41;98843.38;;;2.56;100.00
53619;BME280;68717;53.040;18.488;2024-01-15T00:08:54;98847.13;;;2.53;100.00
53619;BME280;68717;53.040;18.488;2024-01-15T00:09:07;98842.66;;;2.54;100.00
53619;BME280;68717;53.040;18.488;2024-01-15T00:09:20;98840.72;;;2.56;100.00
53619;BME280;68717;53.040;18.488;2024-01-15T00:09:33;98841.84;;;2.53;100.00
53619;BME280;68717;53.040;18.488;2024-01-15T00:09:47;98847.97;;;2.54;100.00
53619;BME280;68717;53.040;18.488;2024-01-15T00:10:00;98841.84;;;2.53;100.00
53619;BME280;68717;53.040;18.488;2024-01-15T00:10:14;98846.28;;;2.53;100.00
53619;BME280;68717;53.040;18.488;2024-01-15T00:10:27;98848.94;;;2.53;100.00
53619;BME280;68717;53.040;18.488;2024-01-15T00:10:40;98841.84;;;2.53;100.00
53619;BME280;68717;53.040;18.488;2024-01-15T00:10:53;98840.13;;;2.52;100.00
53619;BME280;68717;53.040;18.488;2024-01-15T00:11:06;98838.47;;;2.51;100.00
53619;BME280;68717;53.040;18.488;2024-01-15T00:11:19;98841.00;;;2.53;100.00
53619;BME280;68717;53.040;18.488;2024-01-15T00:11:34;98834.03;;;2.52;100.00
53619;BME280;68717;53.040;18.488;2024-01-15T00:11:48;98840.13;;;2.52;100.00
53619;BME280;68717;53.040;18.488;2024-01-15T00:12:01;98838.34;;;2.53;100.00
53619;BME280;68717;53.040;18.488;2024-01-15T00:12:14;98835.84;;;2.51;100.00
53619;BME280;68717;53.040;18.488;2024-01-15T00:12:27;98845.59;;;2.51;100.00
53619;BME280;68717;53.040;18.488;2024-01-15T00:12:40;98837.66;;;2.51;100.00
53619;BME280;68717;53.040;18.488;2024-01-15T00:12:53;98834.13;;;2.50;100.00
53619;BME280;68717;53.040;18.488;2024-01-15T00:13:06;98834.13;;;2.50;100.00
53619;BME280;68717;53.040;18.488;2024-01-15T00:13:20;98830.66;;;2.50;100.00
53619;BME280;68717;53.040;18.488;2024-01-15T00:13:33;98833.31;;;2.50;100.00
53619;BME280;68717;53.040;18.488;2024-01-15T00:13:46;98837.66;;;2.51;100.00
53619;BME280;68717;53.040;18.488;2024-01-15T00:14:00;98842.94;;;2.51;100.00
53619;BME280;68717;53.040;18.488;2024-01-15T00:14:15;98839.44;;;2.50;100.00
53619;BME280;68717;53.040;18.488;2024-01-15T00:14:33;98836.78;;;2.50;100.00
53619;BME280;68717;53.040;18.488;2024-01-15T00:14:46;98827.06;;;2.51;100.00
53619;BME280;68717;53.040;18.488;2024-01-15T00:14:59;98835.84;;;2.51;100.00
53619;BME280;68717;53.040;18.488;2024-01-15T00:15:12;98831.50;;;2.50;100.00
53619;BME280;68717;53.040;18.488;2024-01-15T00:15:25;98831.50;;;2.50;100.00
53619;BME280;68717;53.040;18.488;2024-01-15T00:15:41;98829.72;;;2.51;100.00
53619;BME280;68717;53.040;18.488;2024-01-15T00:15:54;98826.19;;;2.50;100.00
53619;BME280;68717;53.040;18.488;2024-01-15T00:16:10;98835.13;;;2.49;100.00
53619;BME280;68717;53.040;18.488;2024-01-15T00:16:24;98831.50;;;2.50;100.00
53619;BME280;68717;53.040;18.488;2024-01-15T00:16:37;98824.53;;;2.49;100.00
53619;BME280;68717;53.040;18.488;2024-01-15T00:16:52;98824.53;;;2.49;100.00
53619;BME280;68717;53.040;18.488;2024-01-15T00:17:07;98828.00;;;2.50;100.00
53619;BME280;68717;53.040;18.488;2024-01-15T00:17:21;98826.19;;;2.50;100.00
53619;BME280;68717;53.040;18.488;2024-01-15T00:17:34;98823.72;;;2.49;100.00
53619;BME280;68717;53.040;18.488;2024-01-15T00:17:47;98824.53;;;2.49;100.00
53619;BME280;68717;53.040;18.488;2024-01-15T00:18:00;98828.84;;;2.50;100.00
53619;BME280;68717;53.040;18.488;2024-01-15T00:18:14;98826.34;;;2.49;100.00
53619;BME280;68717;53.040;18.488;2024-01-15T00:18:28;98823.72;;;2.49;100.00
53619;BME280;68717;53.040;18.488;2024-01-15T00:18:42;98818.41;;;2.49;100.00
53619;BME280;68717;53.040;18.488;2024-01-15T00:18:55;98826.34;;;2.49;100.00
53619;BME280;68717;53.040;18.488;2024-01-15T00:19:08;98821.91;;;2.49;100.00
53619;BME280;68717;53.040;18.488;2024-01-15T00:19:21;98826.34;;;2.49;100.00
53619;BME280;68717;53.040;18.488;2024-01-15T00:19:35;98825.38;;;2.50;100.00
53619;BME280;68717;53.040;18.488;2024-01-15T00:19:48;98826.19;;;2.50;100.00
53619;BME280;68717;53.040;18.488;2024-01-15T00:20:01;98819.25;;;2.49;100.00
53619;BME280;68717;53.040;18.488;2024-01-15T00:20:14;98826.19;;;2.50;100.00
53619;BME280;68717;53.040;18.488;2024-01-15T00:20:28;98817.44;;;2.50;100.00
53619;BME280;68717;53.040;18.488;2024-01-15T00:20:42;98824.53;;;2.49;100.00
53619;BME280;68717;53.040;18.488;2024-01-15T00:20:55;98823.56;;;2.50;100.00
53619;BME280;68717;53.040;18.488;2024-01-15T00:21:09;98819.13;;;2.51;100.00
53619;BME280;68717;53.040;18.488;2024-01-15T00:21:22;98825.25;;;2.51;100.00
53619;BME280;68717;53.040;18.488;2024-01-15T00:21:36;98822.59;;;2.51;100.00
53619;BME280;68717;53.040;18.488;2024-01-15T00:21:49;98820.91;;;2.50;100.00
53619;BME280;68717;53.040;18.488;2024-01-15T00:22:02;98818.28;;;2.50;100.00
53619;BME280;68717;53.040;18.488;2024-01-15T00:22:15;98816.59;;;2.49;100.00
53619;BME280;68717;53.040;18.488;2024-01-15T00:22:28;98817.31;;;2.51;100.00
53619;BME280;68717;53.040;18.488;2024-01-15T00:22:43;98820.91;;;2.50;100.00
53619;BME280;68717;53.040;18.488;2024-01-15T00:22:56;98815.63;;;2.50;100.00
53619;BME280;68717;53.040;18.488;2024-01-15T00:23:09;98820.91;;;2.50;100.00
53619;BME280;68717;53.040;18.488;2024-01-15T00:23:25;98815.63;;;2.50;100.00
53619;BME280;68717;53.040;18.488;2024-01-15T00:23:42;98808.66;;;2.49;100.00
53619;BME280;68717;53.040;18.488;2024-01-15T00:23:55;98812.16;;;2.50;100.00
53619;BME280;68717;53.040;18.488;2024-01-15T00:24:08;98809.50;;;2.50;100.00
53619;BME280;68717;53.040;18.488;2024-01-15T00:24:21;98821.91;;;2.49;100.00
53619;BME280;68717;53.040;18.488;2024-01-15T00:24:36;98811.31;;;2.49;100.00
53619;BME280;68717;53.040;18.488;2024-01-15T00:24:49;98812.16;;;2.50;100.00
53619;BME280;68717;53.040;18.488;2024-01-15T00:25:02;98811.31;;;2.49;100.00
53619;BME280;68717;53.040;18.488;2024-01-15T00:25:15;98811.31;;;2.49;100.00
53619;BME280;68717;53.040;18.488;2024-01-15T00:25:28;98815.63;;;2.50;100.00
53619;BME280;68717;53.040;18.488;2024-01-15T00:25:41;98810.34;;;2.50;100.00
53619;BME280;68717;53.040;18.488;2024-01-15T00:25:54;98815.38;;;2.53;100.00
53619;BME280;68717;53.040;18.488;2024-01-15T00:26:07;98811.75;;;2.54;100.00
53619;BME280;68717;53.040;18.488;2024-01-15T00:26:22;98807.44;;;2.53;100.00
53619;BME280;68717;53.040;18.488;2024-01-15T00:26:35;98803.09;;;2.52;100.00
53619;BME280;68717;53.040;18.488;2024-01-15T00:26:48;98815.50;;;2.52;100.00
53619;BME280;68717;53.040;18.488;2024-01-15T00:27:01;98816.50;;;2.51;100.00
53619;BME280;68717;53.040;18.488;2024-01-15T00:27:14;98811.19;;;2.51;100.00
53619;BME280;68717;53.040;18.488;2024-01-15T00:27:27;98811.19;;;2.51;100.00
53619;BME280;68717;53.040;18.488;2024-01-15T00:27:40;98802.41;;;2.50;100.00
53619;BME280;68717;53.040;18.488;2024-01-15T00:27:54;98804.22;;;2.50;100.00
53619;BME280;68717;53.040;18.488;2024-01-15T00:28:10;98808.66;;;2.49;100.00
53619;BME280;68717;53.040;18.488;2024-01-15T00:28:24;98805.63;;;2.54;100.00
53619;BME280;68717;53.040;18.488;2024-01-15T00:28:37;98807.06;;;2.58;100.00
53619;BME280;68717;53.040;18.488;2024-01-15T00:28:50;98806.22;;;2.57;100.00
53619;BME280;68717;53.040;18.488;2024-01-15T00:29:04;98805.50;;;2.55;100.00
53619;BME280;68717;53.040;18.488;2024-01-15T00:29:16;98805.50;;;2.55;100.00
53619;BME280;68717;53.040;18.488;2024-01-15T00:29:29;98803.81;;;2.54;100.00
53619;BME280;68717;53.040;18.488;2024-01-15T00:29:44;98809.25;;;2.53;100.00
53619;BME280;68717;53.040;18.488;2024-01-15T00:29:57;98804.09;;;2.51;100.00
53619;BME280;68717;53.040;18.488;2024-01-15T00:30:11;98800.63;;;2.51;100.00
53619;BME280;68717;53.040;18.488;2024-01-15T00:30:24;98811.19;;;2.51;100.00
53619;BME280;68717;53.040;18.488;2024-01-15T00:30:37;98812.03;;;2.51;100.00
53619;BME280;68717;53.040;18.488;2024-01-15T00:30:50;98799.75;;;2.50;100.00
53619;BME280;68717;53.040;18.488;2024-01-15T00:31:04;98805.03;;;2.50;100.00
53619;BME280;68717;53.040;18.488;2024-01-15T00:31:19;98803.38;;;2.49;100.00
53619;BME280;68717;53.040;18.488;2024-01-15T00:31:32;98799.06;;;2.48;100.00
53619;BME280;68717;53.040;18.488;2024-01-15T00:31:45;98807.00;;;2.48;100.00
53619;BME280;68717;53.040;18.488;2024-01-15T00:32:00;98796.44;;;2.48;100.00
53619;BME280;68717;53.040;18.488;2024-01-15T00:32:13;98805.31;;;2.47;100.00
53619;BME280;68717;53.040;18.488;2024-01-15T00:32:26;98804.38;;;2.48;100.00
53619;BME280;68717;53.040;18.488;2024-01-15T00:32:39;98799.19;;;2.47;100.00
53619;BME280;68717;53.040;18.488;2024-01-15T00:32:52;98795.72;;;2.46;100.00
53619;BME280;68717;53.040;18.488;2024-01-15T00:33:08;98798.34;;;2.46;100.00
53619;BME280;68717;53.040;18.488;2024-01-15T00:33:23;98795.72;;;2.46;100.00
53619;BME280;68717;53.040;18.488;2024-01-15T00:33:37;98791.38;;;2.45;100.00
53619;BME280;68717;53.040;18.488;2024-01-15T00:33:50;98796.66;;;2.45;100.00
53619;BME280;68717;53.040;18.488;2024-01-15T00:34:03;98794.03;;;2.45;100.00
53619;BME280;68717;53.040;18.488;2024-01-15T00:34:17;98791.38;;;2.45;100.00
53619;BME280;68717;53.040;18.488;2024-01-15T00:34:30;98791.38;;;2.45;100.00
53619;BME280;68717;53.040;18.488;2024-01-15T00:34:43;98793.19;;;2.44;100.00
53619;BME280;68717;53.040;18.488;2024-01-15T00:34:56;98806.41;;;2.44;100.00
53619;BME280;68717;53.040;18.488;2024-01-15T00:35:10;98802.06;;;2.43;100.00
53619;BME280;68717;53.040;18.488;2024-01-15T00:35:23;98792.34;;;2.44;100.00
53619;BME280;68717;53.040;18.488;2024-01-15T00:35:37;98797.66;;;2.44;100.00
53619;BME280;68717;53.040;18.488;2024-01-15T00:35:50;98788.03;;;2.43;100.00
53619;BME280;68717;53.040;18.488;2024-01-15T00:36:04;98806.41;;;2.44;100.00
53619;BME280;68717;53.040;18.488;2024-01-15T00:36:17;98792.34;;;2.44;100.00
53619;BME280;68717;53.040;18.488;2024-01-15T00:36:30;98788.03;;;2.43;100.00
53619;BME280;68717;53.040;18.488;2024-01-15T00:36:44;98788.03;;;2.43;100.00
53619;BME280;68717;53.040;18.488;2024-01-15T00:36:57;98788.03;;;2.43;100.00
53619;BME280;68717;53.040;18.488;2024-01-15T00:37:10;98787.19;;;2.42;100.00
53619;BME280;68717;53.040;18.488;2024-01-15T00:37:23;98797.78;;;2.42;100.00
53619;BME280;68717;53.040;18.488;2024-01-15T00:37:36;98800.53;;;2.41;100.00
53619;BME280;68717;53.040;18.488;2024-01-15T00:37:49;98790.78;;;2.41;100.00
53619;BME280;68717;53.040;18.488;2024-01-15T00:38:03;98798.72;;;2.41;100.00
53619;BME280;68717;53.040;18.488;2024-01-15T00:38:16;98795.25;;;2.41;100.00
53619;BME280;68717;53.040;18.488;2024-01-15T00:38:30;98798.72;;;2.41;100.00
53619;BME280;68717;53.040;18.488;2024-01-15T00:38:43;98784.66;;;2.41;100.00
53619;BME280;68717;53.040;18.488;2024-01-15T00:38:57;98795.25;;;2.41;100.00
53619;BME280;68717;53.040;18.488;2024-01-15T00:39:10;98800.53;;;2.41;100.00
53619;BME280;68717;53.040;18.488;2024-01-15T00:39:23;98797.88;;;2.41;100.00
53619;BME280;68717;53.040;18.488;2024-01-15T00:39:36;98784.66;;;2.41;100.00
53619;BME280;68717;53.040;18.488;2024-01-15T00:39:51;98784.66;;;2.41;100.00
53619;BME280;68717;53.040;18.488;2024-01-15T00:40:05;98787.31;;;2.41;100.00
53619;BME280;68717;53.040;18.488;2024-01-15T00:40:18;98785.66;;;2.40;100.00
53619;BME280;68717;53.040;18.488;2024-01-15T00:40:31;98784.81;;;2.39;100.00
53619;BME280;68717;53.040;18.488;2024-01-15T00:40:44;98793.56;;;2.40;100.00
53619;BME280;68717;53.040;18.488;2024-01-15T00:40:57;98787.47;;;2.39;100.00
53619;BME280;68717;53.040;18.488;2024-01-15T00:41:10;98785.75;;;2.38;100.00
53619;BME280;68717;53.040;18.488;2024-01-15T00:41:24;98784.94;;;2.38;100.00
53619;BME280;68717;53.040;18.488;2024-01-15T00:41:37;98781.31;;;2.39;100.00
53619;BME280;68717;53.040;18.488;2024-01-15T00:41:51;98784.81;;;2.39;100.00
53619;BME280;68717;53.040;18.488;2024-01-15T00:42:04;98791.88;;;2.39;100.00
53619;BME280;68717;53.040;18.488;2024-01-15T00:42:17;98783.94;;;2.39;100.00
53619;BME280;68717;53.040;18.488;2024-01-15T00:42:30;98783.94;;;2.39;100.00
53619;BME280;68717;53.040;18.488;2024-01-15T00:42:43;98773.38;;;2.39;100.00
53619;BME280;68717;53.040;18.488;2024-01-15T00:42:56;98778.66;;;2.39;100.00
53619;BME280;68717;53.040;18.488;2024-01-15T00:43:11;98779.66;;;2.38;100.00
53619;BME280;68717;53.040;18.488;2024-01-15T00:43:23;98779.66;;;2.38;100.00
53619;BME280;68717;53.040;18.488;2024-01-15T00:43:37;98778.81;;;2.37;100.00
53619;BME280;68717;53.040;18.488;2024-01-15T00:43:50;98778.81;;;2.37;100.00
53619;BME280;68717;53.040;18.488;2024-01-15T00:44:03;98785.88;;;2.37;100.00
53619;BME280;68717;53.040;18.488;2024-01-15T00:44:16;98782.28;;;2.38;100.00
53619;BME280;68717;53.040;18.488;2024-01-15T00:44:29;98777.94;;;2.37;100.00
53619;BME280;68717;53.040;18.488;2024-01-15T00:44:42;98776.28;;;2.36;100.00
53619;BME280;68717;53.040;18.488;2024-01-15T00:44:56;98789.41;;;2.37;100.00
53619;BME280;68717;53.040;18.488;2024-01-15T00:45:09;98778.81;;;2.37;100.00
53619;BME280;68717;53.040;18.488;2024-01-15T00:45:23;98780.59;;;2.37;100.00
53619;BME280;68717;53.040;18.488;2024-01-15T00:45:36;98792.16;;;2.36;100.00
53619;BME280;68717;53.040;18.488;2024-01-15T00:45:50;98778.94;;;2.36;100.00
53619;BME280;68717;53.040;18.488;2024-01-15T00:46:03;98773.66;;;2.36;100.00
53619;BME280;68717;53.040;18.488;2024-01-15T00:46:16;98786.88;;;2.36;100.00
53619;BME280;68717;53.040;18.488;2024-01-15T00:46:29;98786.03;;;2.35;100.00
53619;BME280;68717;53.040;18.488;2024-01-15T00:46:44;98777.25;;;2.35;100.00
53619;BME280;68717;53.040;18.488;2024-01-15T00:46:57;98781.56;;;2.36;100.00
53619;BME280;68717;53.040;18.488;2024-01-15T00:47:10;98785.19;;;2.35;100.00
53619;BME280;68717;53.040;18.488;2024-01-15T00:47:24;98782.53;;;2.35;100.00
53619;BME280;68717;53.040;18.488;2024-01-15T00:47:37;98779.88;;;2.35;100.00
53619;BME280;68717;53.040;18.488;2024-01-15T00:47:50;98784.34;;;2.34;100.00
53619;BME280;68717;53.040;18.488;2024-01-15T00:48:04;98783.50;;;2.34;100.00
53619;BME280;68717;53.040;18.488;2024-01-15T00:48:17;98785.31;;;2.33;100.00
53619;BME280;68717;53.040;18.488;2024-01-15T00:48:33;98789.75;;;2.33;100.00
53619;BME280;68717;53.040;18.488;2024-01-15T00:48:46;98772.94;;;2.34;100.00
53619;BME280;68717;53.040;18.488;2024-01-15T00:49:00;98779.19;;;2.33;100.00
53619;BME280;68717;53.040;18.488;2024-01-15T00:49:13;98780.97;;;2.32;100.00
53619;BME280;68717;53.040;18.488;2024-01-15T00:49:27;98785.31;;;2.33;100.00
53619;BME280;68717;53.040;18.488;2024-01-15T00:49:40;98781.81;;;2.33;100.00
53619;BME280;68717;53.040;18.488;2024-01-15T00:49:53;98780.16;;;2.32;100.00
53619;BME280;68717;53.040;18.488;2024-01-15T00:50:07;98787.09;;;2.33;100.00
53619;BME280;68717;53.040;18.488;2024-01-15T00:50:21;98776.53;;;2.33;100.00
53619;BME280;68717;53.040;18.488;2024-01-15T00:50:35;98776.53;;;2.33;100.00
53619;BME280;68717;53.040;18.488;2024-01-15T00:50:48;98775.69;;;2.32;100.00
53619;BME280;68717;53.040;18.488;2024-01-15T00:51:07;98780.16;;;2.32;100.00
53619;BME280;68717;53.040;18.488;2024-01-15T00:51:20;98781.81;;;2.33;100.00
53619;BME280;68717;53.040;18.488;2024-01-15T00:51:33;98774.88;;;2.32;100.00
53619;BME280;68717;53.040;18.488;2024-01-15T00:51:47;98787.25;;;2.31;100.00
53619;BME280;68717;53.040;18.488;2024-01-15T00:52:00;98773.19;;;2.31;100.00
53619;BME280;68717;53.040;18.488;2024-01-15T00:52:13;98773.19;;;2.31;100.00
53619;BME280;68717;53.040;18.488;2024-01-15T00:52:27;98771.38;;;2.31;100.00
53619;BME280;68717;53.040;18.488;2024-01-15T00:52:40;98766.09;;;2.31;100.00
53619;BME280;68717;53.040;18.488;2024-01-15T00:52:53;98762.63;;;2.31;100.00
53619;BME280;68717;53.040;18.488;2024-01-15T00:53:06;98767.91;;;2.31;100.00
53619;BME280;68717;53.040;18.488;2024-01-15T00:53:19;98767.06;;;2.30;100.00
53619;BME280;68717;53.040;18.488;2024-01-15T00:53:32;98763.47;;;2.31;100.00
53619;BME280;68717;53.040;18.488;2024-01-15T00:53:45;98764.28;;;2.32;100.00
53619;BME280;68717;53.040;18.488;2024-01-15T00:53:58;98766.09;;;2.31;100.00
53619;BME280;68717;53.040;18.488;2024-01-15T00:54:11;98764.28;;;2.32;100.00
53619;BME280;68717;53.040;18.488;2024-01-15T00:54:26;98768.75;;;2.31;100.00
53619;BME280;68717;53.040;18.488;2024-01-15T00:54:39;98767.91;;;2.31;100.00
53619;BME280;68717;53.040;18.488;2024-01-15T00:54:53;98775.69;;;2.32;100.00
53619;BME280;68717;53.040;18.488;2024-01-15T00:55:06;98766.09;;;2.31;100.00
53619;BME280;68717;53.040;18.488;2024-01-15T00:55:19;98762.47;;;2.32;100.00
53619;BME280;68717;53.040;18.488;2024-01-15T00:55:32;98766.94;;;2.32;100.00
53619;BME280;68717;53.040;18.488;2024-01-15T00:55:45;98771.38;;;2.31;100.00
53619;BME280;68717;53.040;18.488;2024-01-15T00:55:58;98765.13;;;2.32;100.00
53619;BME280;68717;53.040;18.488;2024-01-15T00:56:11;98767.91;;;2.31;100.00
53619;BME280;68717;53.040;18.488;2024-01-15T00:56:25;98763.47;;;2.31;100.00
53619;BME280;68717;53.040;18.488;2024-01-15T00:56:39;98766.94;;;2.32;100.00
53619;BME280;68717;53.040;18.488;2024-01-15T00:56:52;98760.94;;;2.30;100.00
53619;BME280;68717;53.040;18.488;2024-01-15T00:57:07;98759.97;;;2.31;100.00
53619;BME280;68717;53.040;18.488;2024-01-15T00:57:21;98759.97;;;2.31;100.00
53619;BME280;68717;53.040;18.488;2024-01-15T00:57:34;98766.22;;;2.30;100.00
53619;BME280;68717;53.040;18.488;2024-01-15T00:57:47;98766.22;;;2.30;100.00
53619;BME280;68717;53.040;18.488;2024-01-15T00:58:00;98767.06;;;2.30;100.00
53619;BME280;68717;53.040;18.488;2024-01-15T00:58:14;98755.66;;;2.30;100.00
53619;BME280;68717;53.040;18.488;2024-01-15T00:58:28;98759.97;;;2.31;100.00
53619;BME280;68717;53.040;18.488;2024-01-15T00:58:41;98765.28;;;2.31;100.00
53619;BME280;68717;53.040;18.488;2024-01-15T00:58:55;98764.28;;;2.32;100.00
53619;BME280;68717;53.040;18.488;2024-01-15T00:59:09;98751.06;;;2.32;100.00
53619;BME280;68717;53.040;18.488;2024-01-15T00:59:23;98756.34;;;2.32;100.00
53619;BME280;68717;53.040;18.488;2024-01-15T00:59:38;98761.66;;;2.32;100.00
53619;BME280;68717;53.040;18.488;2024-01-15T00:59:51;98757.34;;;2.31;100.00
53619;BME280;68717;53.040;18.488;2024-01-15T01:00:06;98758.03;;;2.33;100.00
53619;BME280;68717;53.040;18.488;2024-01-15T01:00:19;98757.34;;;2.31;100.00
53619;BME280;68717;53.040;18.488;2024-01-15T01:00:34;98753.72;;;2.32;100.00
53619;BME280;68717;53.040;18.488;2024-01-15T01:00:47;98745.06;;;2.30;100.00
53619;BME280;68717;53.040;18.488;2024-01-15T01:01:01;98746.75;;;2.31;100.00
53619;BME280;68717;53.040;18.488;2024-01-15T01:01:14;98745.78;;;2.32;100.00
53619;BME280;68717;53.040;18.488;2024-01-15T01:01:27;98752.06;;;2.31;100.00
53619;BME280;68717;53.040;18.488;2024-01-15T01:01:41;98752.06;;;2.31;100.00
53619;BME280;68717;53.040;18.488;2024-01-15T01:01:56;98746.75;;;2.31;100.00
53619;BME280;68717;53.040;18.488;2024-01-15T01:02:09;98748.44;;;2.32;100.00
53619;BME280;68717;53.040;18.488;2024-01-15T01:02:22;98756.34;;;2.32;100.00
53619;BME280;68717;53.040;18.488;2024-01-15T01:02:35;98749.41;;;2.31;100.00
53619;BME280;68717;53.040;18.488;2024-01-15T01:02:49;98751.06;;;2.32;100.00
53619;BME280;68717;53.040;18.488;2024-01-15T01:03:02;98744.13;;;2.31;100.00
53619;BME280;68717;53.040;18.488;2024-01-15T01:03:15;98744.13;;;2.31;100.00
53619;BME280;68717;53.040;18.488;2024-01-15T01:03:29;98746.75;;;2.31;100.00
53619;BME280;68717;53.040;18.488;2024-01-15T01:03:44;98746.75;;;2.31;100.00
53619;BME280;68717;53.040;18.488;2024-01-15T01:03:57;98744.13;;;2.31;100.00
53619;BME280;68717;53.040;18.488;2024-01-15T01:04:11;98743.13;;;2.32;100.00
53619;BME280;68717;53.040;18.488;2024-01-15T01:04:27;98751.06;;;2.32;100.00
53619;BME280;68717;53.040;18.488;2024-01-15T01:04:41;98746.75;;;2.31;100.00
53619;BME280;68717;53.040;18.488;2024-01-15T01:04:56;98749.41;;;2.31;100.00
53619;BME280;68717;53.040;18.488;2024-01-15T01:05:09;98745.91;;;2.30;100.00
53619;BME280;68717;53.040;18.488;2024-01-15T01:05:22;98741.47;;;2.31;100.00
53619;BME280;68717;53.040;18.488;2024-01-15T01:05:36;98745.91;;;2.30;100.00
53619;BME280;68717;53.040;18.488;2024-01-15T01:05:49;98742.31;;;2.31;100.00
53619;BME280;68717;53.040;18.488;2024-01-15T01:06:02;98741.47;;;2.31;100.00
53619;BME280;68717;53.040;18.488;2024-01-15T01:06:17;98743.25;;;2.30;100.00
53619;BME280;68717;53.040;18.488;2024-01-15T01:06:30;98745.91;;;2.30;100.00
53619;BME280;68717;53.040;18.488;2024-01-15T01:06:46;98740.63;;;2.30;100.00
53619;BME280;68717;53.040;18.488;2024-01-15T01:06:58;98743.25;;;2.30;100.00
53619;BME280;68717;53.040;18.488;2024-01-15T01:07:11;98742.44;;;2.30;100.00
53619;BME280;68717;53.040;18.488;2024-01-15T01:07:25;98751.19;;;2.30;100.00
53619;BME280;68717;53.040;18.488;2024-01-15T01:07:38;98741.47;;;2.31;100.00
53619;BME280;68717;53.040;18.488;2024-01-15T01:07:51;98742.44;;;2.30;100.00
53619;BME280;68717;53.040;18.488;2024-01-15T01:08:04;98749.41;;;2.31;100.00
53619;BME280;68717;53.040;18.488;2024-01-15T01:08:17;98741.47;;;2.31;100.00
53619;BME280;68717;53.040;18.488;2024-01-15T01:08:31;98746.75;;;2.31;100.00
53619;BME280;68717;53.040;18.488;2024-01-15T01:08:47;98739.78;;;2.30;100.00
53619;BME280;68717;53.040;18.488;2024-01-15T01:09:00;98744.13;;;2.31;100.00
53619;BME280;68717;53.040;18.488;2024-01-15T01:09:13;98730.03;;;2.30;100.00
53619;BME280;68717;53.040;18.488;2024-01-15T01:09:26;98734.50;;;2.30;100.00
53619;BME280;68717;53.040;18.488;2024-01-15T01:09:42;98743.25;;;2.30;100.00
53619;BME280;68717;53.040;18.488;2024-01-15T01:09:56;98740.63;;;2.30;100.00
53619;BME280;68717;53.040;18.488;2024-01-15T01:10:10;98736.19;;;2.31;100.00
53619;BME280;68717;53.040;18.488;2024-01-15T01:10:23;98739.66;;;2.31;100.00
53619;BME280;68717;53.040;18.488;2024-01-15T01:10:37;98741.47;;;2.31;100.00
53619;BME280;68717;53.040;18.488;2024-01-15T01:10:50;98739.66;;;2.31;100.00
53619;BME280;68717;53.040;18.488;2024-01-15T01:11:03;98734.50;;;2.30;100.00
53619;BME280;68717;53.040;18.488;2024-01-15T01:11:16;98738.84;;;2.31;100.00
53619;BME280;68717;53.040;18.488;2024-01-15T01:11:29;98739.66;;;2.31;100.00
53619;BME280;68717;53.040;18.488;2024-01-15T01:11:42;98732.69;;;2.30;100.00